Time;durP1;ratioP1;P1;durP2;ratioP2;P2;SDS_P1;SDS_P2;PMS_P1;PMS_P2;Temp;Humidity;BMP_temperature;BMP_pressure;BME280_temperature;BME280_humidity;BME280_pressure;Samples;Min_cycle;Max_cycle;Signal;HPM_P1;HPM_P2
2021/08/17 00:01:12;;;;;;;1.75;1.20;;;;;;;;;;2616545;54;20030;-63
2021/08/17 00:03:38;;;;;;;1.73;1.10;;;;;;;;;;2616076;54;20026;-64
2021/08/17 00:06:04;;;;;;;2.28;1.30;;;;;;;;;;2616542;54;20130;-63
2021/08/17 00:08:30;;;;;;;1.33;0.73;;;;;;;;;;2616065;54;20018;-62
2021/08/17 00:10:57;;;;;;;3.90;1.73;;;;;;;;;;2616312;54;20038;-63
2021/08/17 00:13:22;;;;;;;2.17;1.15;;;;;;;;;;2616335;47;20011;-63
2021/08/17 00:15:48;;;;;;;1.52;1.13;;;;;;;;;;2616805;39;20352;-63
2021/08/17 00:18:14;;;;;;;2.08;1.48;;;;;;;;;;2616379;54;20018;-64
2021/08/17 00:20:39;;;;;;;1.17;0.88;;;;;;;;;;2615992;54;20490;-63
2021/08/17 00:23:06;;;;;;;1.50;1.05;;;;;;;;;;2616344;54;20014;-62
2021/08/17 00:25:33;;;;;;;2.78;1.30;;;;;;;;;;2616370;54;20010;-62
2021/08/17 00:27:58;;;;;;;2.45;1.48;;;;;;;;;;2616141;47;20033;-63
2021/08/17 00:30:24;;;;;;;13.45;1.83;;;;;;;;;;2617290;31;20541;-62
2021/08/17 00:32:49;;;;;;;1.63;1.13;;;;;;;;;;2616064;54;20018;-63
2021/08/17 00:35:15;;;;;;;1.63;0.90;;;;;;;;;;2616436;54;20017;-62
2021/08/17 00:37:40;;;;;;;1.45;1.00;;;;;;;;;;2615932;54;20061;-62
2021/08/17 00:40:06;;;;;;;1.25;0.93;;;;;;;;;;2616322;54;20011;-63
2021/08/17 00:42:37;;;;;;;4.18;1.60;;;;;;;;;;2616280;54;20010;-63
2021/08/17 00:45:02;;;;;;;1.42;0.90;;;;;;;;;;2616167;51;20014;-62
2021/08/17 00:47:28;;;;;;;1.55;1.20;;;;;;;;;;2615903;54;20129;-62
2021/08/17 00:49:53;;;;;;;1.60;1.13;;;;;;;;;;2616362;54;20186;-62
2021/08/17 00:52:19;;;;;;;2.13;1.25;;;;;;;;;;2616133;54;20095;-62
2021/08/17 00:54:44;;;;;;;1.33;0.88;;;;;;;;;;2616137;51;20027;-64
2021/08/17 00:57:12;;;;;;;3.60;1.77;;;;;;;;;;2616218;54;20027;-63
2021/08/17 00:59:37;;;;;;;2.65;1.50;;;;;;;;;;2616681;39;20346;-63
2021/08/17 01:02:03;;;;;;;1.63;1.08;;;;;;;;;;2615498;54;20021;-63
2021/08/17 01:04:29;;;;;;;1.35;0.93;;;;;;;;;;2616247;54;20070;-63
2021/08/17 01:06:55;;;;;;;2.58;1.40;;;;;;;;;;2616666;39;20158;-63
2021/08/17 01:09:20;;;;;;;2.80;1.35;;;;;;;;;;2616227;54;20464;-63
2021/08/17 01:11:48;;;;;;;2.05;1.23;;;;;;;;;;2616217;47;20105;-63
2021/08/17 01:14:14;;;;;;;1.67;1.00;;;;;;;;;;2616187;54;20025;-64
2021/08/17 01:16:41;;;;;;;2.38;1.58;;;;;;;;;;2616268;54;20011;-63
2021/08/17 01:19:08;;;;;;;3.45;1.75;;;;;;;;;;2615834;54;20019;-63
2021/08/17 01:21:34;;;;;;;1.80;1.48;;;;;;;;;;2615864;54;20118;-63
2021/08/17 01:24:00;;;;;;;1.17;0.88;;;;;;;;;;2616354;54;20011;-63
2021/08/17 01:26:26;;;;;;;3.65;1.70;;;;;;;;;;2615748;54;20065;-63
2021/08/17 01:28:51;;;;;;;2.42;1.50;;;;;;;;;;2616124;54;20050;-63
2021/08/17 01:31:17;;;;;;;1.77;1.17;;;;;;;;;;2616372;54;20015;-64
2021/08/17 01:33:42;;;;;;;2.83;1.48;;;;;;;;;;2615929;54;20022;-64
2021/08/17 01:36:07;;;;;;;1.42;1.05;;;;;;;;;;2615763;54;20027;-64
2021/08/17 01:38:33;;;;;;;3.25;1.42;;;;;;;;;;2615889;54;20485;-64
2021/08/17 01:40:58;;;;;;;1.70;1.10;;;;;;;;;;2616455;54;20053;-63
2021/08/17 01:43:24;;;;;;;4.43;2.28;;;;;;;;;;2616131;54;20025;-64
2021/08/17 01:45:58;;;;;;;1.90;1.38;;;;;;;;;;2616043;54;20022;-62
2021/08/17 01:48:25;;;;;;;1.33;0.95;;;;;;;;;;2615920;54;20481;-63
2021/08/17 01:50:50;;;;;;;1.80;1.00;;;;;;;;;;2615728;54;20117;-63
2021/08/17 01:53:16;;;;;;;2.88;1.60;;;;;;;;;;2616199;39;20372;-63
2021/08/17 01:55:41;;;;;;;2.20;1.50;;;;;;;;;;2616032;54;20006;-63
2021/08/17 01:58:07;;;;;;;6.38;1.63;;;;;;;;;;2616264;39;20354;-63
2021/08/17 02:00:32;;;;;;;1.40;0.93;;;;;;;;;;2616052;54;20481;-63
2021/08/17 02:02:57;;;;;;;2.25;1.80;;;;;;;;;;2615950;54;20010;-64
2021/08/17 02:05:24;;;;;;;3.28;1.88;;;;;;;;;;2616408;39;20089;-64
2021/08/17 02:07:52;;;;;;;3.17;1.92;;;;;;;;;;2615770;54;20034;-63
2021/08/17 02:10:17;;;;;;;3.35;1.75;;;;;;;;;;2615947;54;20023;-64
2021/08/17 02:12:43;;;;;;;3.03;1.25;;;;;;;;;;2615271;54;20018;-63
2021/08/17 02:15:09;;;;;;;2.45;1.15;;;;;;;;;;2615817;54;20425;-64
2021/08/17 02:17:34;;;;;;;2.72;1.88;;;;;;;;;;2615344;54;20010;-65
2021/08/17 02:19:59;;;;;;;2.20;1.50;;;;;;;;;;2616299;54;20018;-65
2021/08/17 02:22:25;;;;;;;1.98;1.40;;;;;;;;;;2616037;54;20019;-65
2021/08/17 02:24:50;;;;;;;1.95;1.10;;;;;;;;;;2615853;54;20033;-65
2021/08/17 02:27:16;;;;;;;2.53;1.65;;;;;;;;;;2615631;54;20117;-65
2021/08/17 02:29:41;;;;;;;2.58;1.40;;;;;;;;;;2615256;54;20011;-66
2021/08/17 02:32:07;;;;;;;11.23;2.00;;;;;;;;;;2615944;54;20489;-66
2021/08/17 02:34:32;;;;;;;2.13;1.15;;;;;;;;;;2615598;54;20026;-65
2021/08/17 02:36:58;;;;;;;1.40;0.95;;;;;;;;;;2614922;54;20018;-65
2021/08/17 02:39:23;;;;;;;2.17;1.40;;;;;;;;;;2615190;54;20030;-65
2021/08/17 02:41:48;;;;;;;1.95;1.25;;;;;;;;;;2616066;54;20026;-65
2021/08/17 02:44:14;;;;;;;2.65;1.77;;;;;;;;;;2615776;54;20015;-64
2021/08/17 02:46:39;;;;;;;2.90;1.60;;;;;;;;;;2612242;54;20497;-63
2021/08/17 02:49:05;;;;;;;2.00;1.33;;;;;;;;;;2615294;54;20019;-63
2021/08/17 02:51:31;;;;;;;2.17;1.35;;;;;;;;;;2616445;31;20417;-63
2021/08/17 02:53:56;;;;;;;2.97;1.70;;;;;;;;;;2616036;54;20094;-63
2021/08/17 02:56:21;;;;;;;3.15;1.98;;;;;;;;;;2615274;54;20015;-63
2021/08/17 02:58:47;;;;;;;1.63;1.10;;;;;;;;;;2615496;54;20745;-63
2021/08/17 03:01:12;;;;;;;2.47;1.73;;;;;;;;;;2615971;54;20011;-63
2021/08/17 03:03:37;;;;;;;2.28;1.60;;;;;;;;;;2615684;54;20010;-63
2021/08/17 03:06:03;;;;;;;1.95;1.48;;;;;;;;;;2615166;54;20019;-63
2021/08/17 03:08:28;;;;;;;2.22;1.52;;;;;;;;;;2615577;54;20014;-63
2021/08/17 03:10:54;;;;;;;3.15;1.50;;;;;;;;;;2615701;54;20038;-64
2021/08/17 03:13:19;;;;;;;2.20;1.45;;;;;;;;;;2615621;54;20051;-63
2021/08/17 03:15:44;;;;;;;2.75;1.77;;;;;;;;;;2615433;54;20019;-71
2021/08/17 03:18:10;;;;;;;1.95;1.35;;;;;;;;;;2615688;54;20492;-71
2021/08/17 03:20:37;;;;;;;4.03;1.95;;;;;;;;;;2615671;54;20037;-71
2021/08/17 03:23:04;;;;;;;2.13;1.45;;;;;;;;;;2615483;54;20014;-71
2021/08/17 03:25:29;;;;;;;3.55;2.55;;;;;;;;;;2615665;47;20524;-71
2021/08/17 03:27:55;;;;;;;3.50;1.73;;;;;;;;;;2615644;54;20045;-71
2021/08/17 03:30:23;;;;;;;4.07;2.20;;;;;;;;;;2615717;54;20130;-71
2021/08/17 03:32:49;;;;;;;1.88;1.48;;;;;;;;;;2615483;54;20029;-71
2021/08/17 03:35:15;;;;;;;2.92;1.73;;;;;;;;;;2615660;54;20038;-71
2021/08/17 03:37:41;;;;;;;4.05;1.63;;;;;;;;;;2615736;54;20014;-72
2021/08/17 03:40:12;;;;;;;2.85;1.80;;;;;;;;;;2615449;54;20010;-71
2021/08/17 03:42:38;;;;;;;2.45;1.65;;;;;;;;;;2615471;54;20025;-72
2021/08/17 03:45:12;;;;;;;2.08;1.27;;;;;;;;;;2615082;54;20023;-71
2021/08/17 03:47:38;;;;;;;4.35;2.03;;;;;;;;;;2615312;47;20015;-72
2021/08/17 03:50:06;;;;;;;3.45;2.42;;;;;;;;;;2615398;54;20049;-71
2021/08/17 03:52:32;;;;;;;2.53;1.67;;;;;;;;;;2614966;54;20022;-72
2021/08/17 03:54:57;;;;;;;3.20;1.70;;;;;;;;;;2615778;54;20018;-72
2021/08/17 03:57:22;;;;;;;3.90;1.73;;;;;;;;;;2615640;54;20015;-72
2021/08/17 03:59:48;;;;;;;2.38;1.70;;;;;;;;;;2615950;51;20022;-72
2021/08/17 04:02:13;;;;;;;2.33;1.17;;;;;;;;;;2616455;54;20022;-71
2021/08/17 04:04:38;;;;;;;2.60;1.75;;;;;;;;;;2616346;54;20098;-71
2021/08/17 04:07:04;;;;;;;3.25;1.67;;;;;;;;;;2616791;39;20598;-72
2021/08/17 04:09:29;;;;;;;2.40;1.63;;;;;;;;;;2616362;54;20030;-71
2021/08/17 04:11:54;;;;;;;3.05;1.88;;;;;;;;;;2616193;39;20374;-71
2021/08/17 04:14:20;;;;;;;4.93;2.08;;;;;;;;;;2615830;54;20010;-71
2021/08/17 04:16:45;;;;;;;2.55;1.52;;;;;;;;;;2615982;54;20038;-71
2021/08/17 04:19:11;;;;;;;2.72;1.52;;;;;;;;;;2616368;54;20105;-71
2021/08/17 04:21:36;;;;;;;4.10;1.90;;;;;;;;;;2616226;54;20059;-71
2021/08/17 04:24:02;;;;;;;3.92;2.10;;;;;;;;;;2616197;54;20023;-71
2021/08/17 04:26:27;;;;;;;2.40;1.75;;;;;;;;;;2616123;54;20046;-71
2021/08/17 04:28:53;;;;;;;4.43;2.72;;;;;;;;;;2616217;54;20720;-71
2021/08/17 04:31:19;;;;;;;2.85;1.60;;;;;;;;;;2616517;54;20022;-71
2021/08/17 04:33:44;;;;;;;4.15;1.98;;;;;;;;;;2616245;54;20077;-71
2021/08/17 04:36:10;;;;;;;6.30;2.40;;;;;;;;;;2616213;54;20034;-71
2021/08/17 04:38:35;;;;;;;4.95;2.28;;;;;;;;;;2616195;54;20019;-71
2021/08/17 04:41:00;;;;;;;2.45;1.52;;;;;;;;;;2616364;54;20035;-71
2021/08/17 04:43:26;;;;;;;5.22;2.35;;;;;;;;;;2616494;54;20049;-71
2021/08/17 04:45:52;;;;;;;3.22;1.85;;;;;;;;;;2615973;54;20027;-72
2021/08/17 04:48:18;;;;;;;9.55;2.83;;;;;;;;;;2616476;54;20036;-71
2021/08/17 04:50:44;;;;;;;3.72;2.55;;;;;;;;;;2616160;54;20452;-71
2021/08/17 04:53:09;;;;;;;4.20;2.90;;;;;;;;;;2615846;54;20010;-71
2021/08/17 04:55:34;;;;;;;4.85;2.53;;;;;;;;;;2616472;39;20455;-72
2021/08/17 04:58:00;;;;;;;3.90;2.50;;;;;;;;;;2616564;39;20654;-72
2021/08/17 05:00:27;;;;;;;6.97;2.85;;;;;;;;;;2613899;54;20045;-71
2021/08/17 05:02:53;;;;;;;3.60;2.03;;;;;;;;;;2615994;54;20015;-71
2021/08/17 05:05:19;;;;;;;4.18;2.60;;;;;;;;;;2615770;54;20066;-71
2021/08/17 05:07:45;;;;;;;3.45;2.28;;;;;;;;;;2615005;46;20042;-71
2021/08/17 05:10:14;;;;;;;7.30;3.20;;;;;;;;;;2615536;54;20022;-72
2021/08/17 05:12:39;;;;;;;2.75;2.08;;;;;;;;;;2616008;54;20544;-71
2021/08/17 05:15:07;;;;;;;5.53;1.98;;;;;;;;;;2616404;54;20038;-71
2021/08/17 05:17:33;;;;;;;3.00;1.90;;;;;;;;;;2614914;54;20010;-70
2021/08/17 05:19:58;;;;;;;3.17;2.33;;;;;;;;;;2616242;54;20023;-71
2021/08/17 05:22:24;;;;;;;3.00;2.10;;;;;;;;;;2616101;54;20015;-71
2021/08/17 05:24:49;;;;;;;4.65;2.97;;;;;;;;;;2616265;54;20141;-71
2021/08/17 05:27:15;;;;;;;3.35;2.08;;;;;;;;;;2616158;54;20106;-71
2021/08/17 05:29:40;;;;;;;6.05;3.03;;;;;;;;;;2616102;54;20023;-71
2021/08/17 05:32:06;;;;;;;3.15;1.92;;;;;;;;;;2616061;39;20423;-71
2021/08/17 05:34:31;;;;;;;4.00;2.35;;;;;;;;;;2615761;54;20122;-71
2021/08/17 05:36:57;;;;;;;4.53;2.10;;;;;;;;;;2616142;39;20346;-71
2021/08/17 05:39:23;;;;;;;3.67;2.50;;;;;;;;;;2615926;47;20106;-70
2021/08/17 05:41:48;;;;;;;4.07;2.17;;;;;;;;;;2615740;54;20022;-72
2021/08/17 05:44:14;;;;;;;3.33;1.85;;;;;;;;;;2615863;54;20049;-71
2021/08/17 05:46:39;;;;;;;3.15;2.15;;;;;;;;;;2615677;54;20045;-71
2021/08/17 05:49:05;;;;;;;3.83;2.53;;;;;;;;;;2615877;54;20062;-69
2021/08/17 05:51:30;;;;;;;2.95;1.90;;;;;;;;;;2615670;54;20125;-70
2021/08/17 05:53:55;;;;;;;4.15;2.33;;;;;;;;;;2615749;54;20018;-70
2021/08/17 05:56:21;;;;;;;4.20;2.03;;;;;;;;;;2615498;39;20377;-70
2021/08/17 05:58:46;;;;;;;3.05;1.85;;;;;;;;;;2615270;39;20623;-70
2021/08/17 06:01:12;;;;;;;3.45;2.33;;;;;;;;;;2614810;54;20041;-70
2021/08/17 06:03:37;;;;;;;3.35;2.20;;;;;;;;;;2614692;54;20019;-70
2021/08/17 06:06:02;;;;;;;3.33;1.55;;;;;;;;;;2614468;54;20094;-70
2021/08/17 06:08:28;;;;;;;2.95;1.75;;;;;;;;;;2614103;54;20015;-70
2021/08/17 06:10:53;;;;;;;4.95;2.08;;;;;;;;;;2615035;54;20011;-70
2021/08/17 06:13:19;;;;;;;7.90;3.10;;;;;;;;;;2615785;54;20022;-70
2021/08/17 06:15:46;;;;;;;3.28;2.10;;;;;;;;;;2615932;54;20025;-70
2021/08/17 06:18:11;;;;;;;4.18;2.60;;;;;;;;;;2615942;54;20017;-70
2021/08/17 06:20:37;;;;;;;3.28;2.10;;;;;;;;;;2615931;54;20014;-71
2021/08/17 06:23:03;;;;;;;4.80;2.95;;;;;;;;;;2615386;54;20061;-70
2021/08/17 06:25:29;;;;;;;4.68;3.00;;;;;;;;;;2615845;54;20022;-71
2021/08/17 06:27:56;;;;;;;2.58;1.85;;;;;;;;;;2616106;54;20066;-70
2021/08/17 06:30:22;;;;;;;5.13;2.70;;;;;;;;;;2615664;54;20018;-70
2021/08/17 06:32:48;;;;;;;4.65;2.60;;;;;;;;;;2616219;54;20110;-70
2021/08/17 06:35:13;;;;;;;4.32;2.85;;;;;;;;;;2615788;54;20014;-70
2021/08/17 06:37:38;;;;;;;2.88;1.98;;;;;;;;;;2616025;54;20015;-70
2021/08/17 06:40:04;;;;;;;4.82;2.85;;;;;;;;;;2615948;54;20637;-70
2021/08/17 06:42:30;;;;;;;2.58;1.77;;;;;;;;;;2615665;54;20021;-71
2021/08/17 06:44:55;;;;;;;3.22;2.00;;;;;;;;;;2616127;54;20036;-71
2021/08/17 06:47:20;;;;;;;4.97;2.55;;;;;;;;;;2615837;54;20025;-70
2021/08/17 06:49:46;;;;;;;4.47;2.50;;;;;;;;;;2615755;54;20025;-71
2021/08/17 06:52:11;;;;;;;4.72;2.80;;;;;;;;;;2616008;54;20025;-71
2021/08/17 06:54:37;;;;;;;4.13;2.75;;;;;;;;;;2615456;54;20067;-70
2021/08/17 06:57:03;;;;;;;5.18;3.03;;;;;;;;;;2615625;54;20018;-70
2021/08/17 06:59:28;;;;;;;5.25;3.08;;;;;;;;;;2615690;54;20047;-69
2021/08/17 07:01:53;;;;;;;3.88;2.75;;;;;;;;;;2616009;54;20011;-70
2021/08/17 07:04:19;;;;;;;3.55;2.38;;;;;;;;;;2615790;54;20014;-69
2021/08/17 07:06:44;;;;;;;4.85;2.05;;;;;;;;;;2615793;54;20015;-70
2021/08/17 07:09:10;;;;;;;4.72;3.05;;;;;;;;;;2616003;39;20397;-70
2021/08/17 07:11:36;;;;;;;5.47;2.97;;;;;;;;;;2615744;54;20037;-71
2021/08/17 07:14:01;;;;;;;8.43;3.47;;;;;;;;;;2615727;47;20655;-70
2021/08/17 07:16:26;;;;;;;5.40;2.85;;;;;;;;;;2615390;54;20047;-69
2021/08/17 07:18:52;;;;;;;4.63;2.30;;;;;;;;;;2616020;39;20428;-69
2021/08/17 07:21:17;;;;;;;5.88;3.00;;;;;;;;;;2615561;54;20026;-70
2021/08/17 07:23:43;;;;;;;4.28;2.95;;;;;;;;;;2615397;54;20029;-69
2021/08/17 07:26:08;;;;;;;3.70;2.47;;;;;;;;;;2615303;47;20007;-69
2021/08/17 07:28:33;;;;;;;5.50;3.15;;;;;;;;;;2615738;54;20036;-69
2021/08/17 07:30:59;;;;;;;3.85;2.50;;;;;;;;;;2615522;54;20022;-70
2021/08/17 07:33:24;;;;;;;2.88;2.28;;;;;;;;;;2615528;54;20026;-69
2021/08/17 07:35:50;;;;;;;4.07;2.78;;;;;;;;;;2614614;54;20166;-68
2021/08/17 07:38:16;;;;;;;3.28;1.88;;;;;;;;;;2616294;54;20018;-69
2021/08/17 07:40:42;;;;;;;4.95;2.70;;;;;;;;;;2616129;54;20105;-63
2021/08/17 07:43:07;;;;;;;3.33;2.38;;;;;;;;;;2616073;54;20030;-63
2021/08/17 07:45:33;;;;;;;4.28;2.42;;;;;;;;;;2616047;54;20030;-63
2021/08/17 07:47:58;;;;;;;3.78;2.60;;;;;;;;;;2616399;54;20022;-63
2021/08/17 07:50:24;;;;;;;5.93;3.50;;;;;;;;;;2616316;54;20014;-64
2021/08/17 07:52:50;;;;;;;3.30;2.10;;;;;;;;;;2616089;54;20038;-63
2021/08/17 07:55:16;;;;;;;4.35;2.70;;;;;;;;;;2615732;54;20029;-63
2021/08/17 07:57:43;;;;;;;5.97;3.90;;;;;;;;;;2616279;54;20031;-63
2021/08/17 08:00:11;;;;;;;5.68;2.60;;;;;;;;;;2616676;39;20185;-63
2021/08/17 08:02:37;;;;;;;3.75;2.22;;;;;;;;;;2615468;54;20037;-63
2021/08/17 08:05:03;;;;;;;4.82;3.03;;;;;;;;;;2616255;54;20511;-63
2021/08/17 08:07:29;;;;;;;3.92;2.65;;;;;;;;;;2616530;39;20389;-63
2021/08/17 08:09:54;;;;;;;7.30;2.55;;;;;;;;;;2616015;54;20021;-62
2021/08/17 08:12:20;;;;;;;3.55;2.45;;;;;;;;;;2615774;54;20010;-63
2021/08/17 08:14:45;;;;;;;4.30;3.00;;;;;;;;;;2616104;54;20030;-62
2021/08/17 08:17:11;;;;;;;5.20;2.88;;;;;;;;;;2615832;54;20147;-62
2021/08/17 08:19:37;;;;;;;3.95;2.80;;;;;;;;;;2615272;54;20031;-63
2021/08/17 08:22:04;;;;;;;4.97;2.72;;;;;;;;;;2616446;54;20216;-63
2021/08/17 08:24:30;;;;;;;7.40;3.63;;;;;;;;;;2616115;54;20037;-63
2021/08/17 08:26:55;;;;;;;4.57;2.65;;;;;;;;;;2616292;54;20035;-62
2021/08/17 08:29:21;;;;;;;6.15;3.60;;;;;;;;;;2616087;54;20108;-63
2021/08/17 08:31:46;;;;;;;7.57;3.50;;;;;;;;;;2616477;39;20464;-63
2021/08/17 08:34:11;;;;;;;4.43;2.78;;;;;;;;;;2614960;47;20130;-63
2021/08/17 08:36:37;;;;;;;8.32;3.38;;;;;;;;;;2616370;39;20334;-62
2021/08/17 08:39:03;;;;;;;7.25;2.92;;;;;;;;;;2615992;54;20049;-61
2021/08/17 08:41:28;;;;;;;4.97;2.75;;;;;;;;;;2615980;54;20022;-62
2021/08/17 08:43:54;;;;;;;3.60;2.53;;;;;;;;;;2615319;54;20138;-62
2021/08/17 08:46:21;;;;;;;5.03;3.08;;;;;;;;;;2615309;54;20025;-63
2021/08/17 08:48:48;;;;;;;5.85;2.58;;;;;;;;;;2616134;54;20053;-62
2021/08/17 08:51:16;;;;;;;6.35;2.13;;;;;;;;;;2616162;54;20025;-63
2021/08/17 08:53:42;;;;;;;4.22;2.67;;;;;;;;;;2616144;54;20675;-62
2021/08/17 08:56:08;;;;;;;3.80;2.22;;;;;;;;;;2616165;54;20022;-63
2021/08/17 08:58:33;;;;;;;4.82;2.95;;;;;;;;;;2616015;54;20085;-62
2021/08/17 09:00:59;;;;;;;3.95;2.42;;;;;;;;;;2615627;54;20026;-63
2021/08/17 09:03:44;;;;;;;4.10;2.65;;;;;;;;;;2616030;54;20110;-63
2021/08/17 09:06:21;;;;;;;6.97;3.78;;;;;;;;;;2616034;54;20045;-62
2021/08/17 09:09:02;;;;;;;6.53;3.50;;;;;;;;;;2615955;54;20007;-62
2021/08/17 09:11:28;;;;;;;5.78;3.60;;;;;;;;;;2615955;54;20029;-62
2021/08/17 09:13:53;;;;;;;4.28;3.05;;;;;;;;;;2615616;54;20034;-62
2021/08/17 09:16:36;;;;;;;7.75;3.05;;;;;;;;;;2615859;54;20038;-62
2021/08/17 09:19:02;;;;;;;5.60;3.92;;;;;;;;;;2616082;54;20015;-62
2021/08/17 09:21:40;;;;;;;5.38;3.20;;;;;;;;;;2616060;39;20109;-62
2021/08/17 09:24:34;;;;;;;3.17;2.47;;;;;;;;;;2615402;54;20010;-62
2021/08/17 09:27:03;;;;;;;6.57;2.70;;;;;;;;;;2615759;54;20014;-62
2021/08/17 09:29:36;;;;;;;4.55;3.10;;;;;;;;;;2615909;54;20011;-62
2021/08/17 09:32:30;;;;;;;5.45;2.20;;;;;;;;;;2616482;39;20461;-61
2021/08/17 09:35:01;;;;;;;5.97;3.72;;;;;;;;;;2615385;54;20019;-62
2021/08/17 09:37:32;;;;;;;4.15;3.17;;;;;;;;;;2615667;54;20053;-61
2021/08/17 09:39:59;;;;;;;8.68;4.32;;;;;;;;;;2615621;54;20501;-62
2021/08/17 09:42:30;;;;;;;5.13;2.90;;;;;;;;;;2615592;54;20018;-62
2021/08/17 09:45:10;;;;;;;3.28;2.45;;;;;;;;;;2615567;54;20018;-62
2021/08/17 09:47:46;;;;;;;6.88;3.22;;;;;;;;;;2615669;54;20030;-62
2021/08/17 09:50:29;;;;;;;4.25;2.65;;;;;;;;;;2614859;54;20065;-62
2021/08/17 09:53:11;;;;;;;8.65;3.30;;;;;;;;;;2615096;54;20023;-61
2021/08/17 09:55:41;;;;;;;5.47;3.17;;;;;;;;;;2614469;54;20053;-62
2021/08/17 09:58:18;;;;;;;5.35;3.45;;;;;;;;;;2614621;54;20014;-62
2021/08/17 10:00:45;;;;;;;3.65;2.70;;;;;;;;;;2615751;54;20729;-62
2021/08/17 10:03:13;;;;;;;7.20;3.22;;;;;;;;;;2616041;46;20042;-62
2021/08/17 10:05:39;;;;;;;2.97;2.17;;;;;;;;;;2615331;54;20022;-61
2021/08/17 10:08:05;;;;;;;5.97;2.40;;;;;;;;;;2616299;39;20433;-63
2021/08/17 10:10:31;;;;;;;5.25;2.92;;;;;;;;;;2614942;54;20011;-63
2021/08/17 10:12:57;;;;;;;4.63;3.35;;;;;;;;;;2615528;54;20026;-61
2021/08/17 10:15:23;;;;;;;3.35;2.00;;;;;;;;;;2614107;54;20495;-63
2021/08/17 10:17:48;;;;;;;4.45;2.58;;;;;;;;;;2615624;47;20496;-60
2021/08/17 10:20:16;;;;;;;3.92;2.85;;;;;;;;;;2615427;54;20524;-62
2021/08/17 10:22:42;;;;;;;5.28;2.65;;;;;;;;;;2615070;54;20030;-61
2021/08/17 10:25:17;;;;;;;4.78;2.20;;;;;;;;;;2615177;54;20018;-61
2021/08/17 10:27:43;;;;;;;5.55;3.17;;;;;;;;;;2614509;54;20021;-62
2021/08/17 10:30:23;;;;;;;4.47;2.92;;;;;;;;;;2615280;54;20022;-62
2021/08/17 10:32:52;;;;;;;3.42;2.30;;;;;;;;;;2615580;54;20792;-60
2021/08/17 10:35:29;;;;;;;4.55;2.75;;;;;;;;;;2615885;54;20042;-62
2021/08/17 10:38:07;;;;;;;3.97;2.72;;;;;;;;;;2615708;54;20010;-62
2021/08/17 10:40:50;;;;;;;5.65;3.10;;;;;;;;;;2615532;54;20041;-62
2021/08/17 10:43:42;;;;;;;5.03;3.05;;;;;;;;;;2615620;54;20025;-61
2021/08/17 10:46:10;;;;;;;6.90;2.38;;;;;;;;;;2615542;54;20018;-60
2021/08/17 10:51:17;;;;;;;3.10;2.28;;;;;;;;;;2615885;54;20019;-61
2021/08/17 10:53:44;;;;;;;4.45;2.60;;;;;;;;;;2615514;54;20102;-61
2021/08/17 10:56:15;;;;;;;3.63;2.50;;;;;;;;;;2615952;54;20019;-60
2021/08/17 10:58:41;;;;;;;;;;;;;;;;;;2615376;54;20019;-61
2021/08/17 11:01:07;;;;;;;3.42;2.22;;;;;;;;;;2615797;54;19943;-61
2021/08/17 11:03:47;;;;;;;3.72;2.15;;;;;;;;;;2615675;54;20034;-61
2021/08/17 11:06:47;;;;;;;3.85;2.08;;;;;;;;;;2615487;54;20029;-61
2021/08/17 11:09:28;;;;;;;4.93;2.28;;;;;;;;;;2616997;39;20344;-61
2021/08/17 11:12:03;;;;;;;3.58;2.22;;;;;;;;;;2616457;54;20023;-61
2021/08/17 11:14:37;;;;;;;4.00;2.53;;;;;;;;;;2616196;54;20113;-61
2021/08/17 11:17:04;;;;;;;4.40;2.85;;;;;;;;;;2616028;39;20369;-61
2021/08/17 11:19:32;;;;;;;4.97;2.67;;;;;;;;;;2616251;54;20040;-62
2021/08/17 11:22:03;;;;;;;4.43;2.67;;;;;;;;;;2616302;54;20038;-62
2021/08/17 11:24:33;;;;;;;2.67;1.95;;;;;;;;;;2616157;54;20026;-62
2021/08/17 11:27:02;;;;;;;3.83;2.33;;;;;;;;;;2615968;54;20035;-62
2021/08/17 11:29:51;;;;;;;3.85;2.47;;;;;;;;;;2615625;54;20058;-63
2021/08/17 11:32:41;;;;;;;3.38;2.13;;;;;;;;;;2615948;54;20057;-61
2021/08/17 11:35:07;;;;;;;4.67;2.90;;;;;;;;;;2616357;54;20023;-61
2021/08/17 11:37:35;;;;;;;4.65;2.58;;;;;;;;;;2616044;54;20041;-61
2021/08/17 11:40:04;;;;;;;2.97;1.95;;;;;;;;;;2616302;54;20046;-61
2021/08/17 11:42:32;;;;;;;3.65;2.58;;;;;;;;;;2615780;54;20036;-61
2021/08/17 11:45:12;;;;;;;5.18;2.83;;;;;;;;;;2616275;54;20050;-62
2021/08/17 11:47:40;;;;;;;5.57;2.67;;;;;;;;;;2615881;54;20014;-62
2021/08/17 11:50:11;;;;;;;2.97;2.13;;;;;;;;;;2616328;54;20026;-61
2021/08/17 11:52:38;;;;;;;4.20;2.78;;;;;;;;;;2616350;54;20019;-62
2021/08/17 11:55:10;;;;;;;3.85;2.63;;;;;;;;;;2616378;54;20019;-61
2021/08/17 11:57:47;;;;;;;3.65;2.45;;;;;;;;;;2616097;54;20029;-61
2021/08/17 12:00:20;;;;;;;2.60;1.80;;;;;;;;;;2616046;54;20015;-62
2021/08/17 12:02:52;;;;;;;3.75;2.67;;;;;;;;;;2616169;54;20011;-61
2021/08/17 12:05:23;;;;;;;3.47;2.35;;;;;;;;;;2615999;47;20026;-61
2021/08/17 12:07:50;;;;;;;3.35;2.38;;;;;;;;;;2616315;54;20500;-62
2021/08/17 12:10:21;;;;;;;3.67;2.42;;;;;;;;;;2616690;39;20352;-62
2021/08/17 12:13:03;;;;;;;5.55;2.08;;;;;;;;;;2616442;54;20504;-62
2021/08/17 12:15:40;;;;;;;3.53;2.25;;;;;;;;;;2615945;54;20122;-62
2021/08/17 12:18:15;;;;;;;7.32;2.10;;;;;;;;;;2616110;54;20019;-62
2021/08/17 12:20:43;;;;;;;3.95;2.75;;;;;;;;;;2616093;54;20010;-62
2021/08/17 12:23:23;;;;;;;2.33;1.63;;;;;;;;;;2615621;54;20119;-62
2021/08/17 12:25:51;;;;;;;3.47;2.50;;;;;;;;;;2615794;54;20060;-62
2021/08/17 12:28:32;;;;;;;3.55;2.45;;;;;;;;;;2616584;39;20401;-62
2021/08/17 12:31:10;;;;;;;3.35;2.22;;;;;;;;;;2616293;54;20011;-62
2021/08/17 12:33:46;;;;;;;9.45;3.00;;;;;;;;;;2616065;54;20065;-62
2021/08/17 12:36:12;;;;;;;4.95;3.03;;;;;;;;;;2616435;54;20007;-62
2021/08/17 12:38:40;;;;;;;4.82;2.55;;;;;;;;;;2616094;54;20019;-62
2021/08/17 12:41:05;;;;;;;3.05;2.28;;;;;;;;;;2615432;54;20011;-61
2021/08/17 12:43:39;;;;;;;3.10;2.28;;;;;;;;;;2616013;54;20033;-62
2021/08/17 12:46:22;;;;;;;3.08;2.00;;;;;;;;;;2616379;54;20022;-62
2021/08/17 12:48:48;;;;;;;2.05;1.63;;;;;;;;;;2616268;49;20010;-61
2021/08/17 12:51:25;;;;;;;2.72;2.05;;;;;;;;;;2616997;31;20467;-62
2021/08/17 12:53:51;;;;;;;4.65;2.22;;;;;;;;;;2616417;31;20117;-62
2021/08/17 12:56:17;;;;;;;4.15;2.70;;;;;;;;;;2616568;54;20018;-62
2021/08/17 12:58:47;;;;;;;4.05;1.80;;;;;;;;;;2615904;39;20387;-62
2021/08/17 13:01:13;;;;;;;4.35;2.92;;;;;;;;;;2616157;54;20030;-62
2021/08/17 13:03:38;;;;;;;4.07;2.90;;;;;;;;;;2616485;54;20023;-62
2021/08/17 13:06:04;;;;;;;7.43;3.22;;;;;;;;;;2616357;54;20049;-62
2021/08/17 13:08:29;;;;;;;3.22;1.85;;;;;;;;;;2615994;54;20069;-62
2021/08/17 13:10:55;;;;;;;3.45;2.08;;;;;;;;;;2616264;47;20765;-62
2021/08/17 13:13:20;;;;;;;4.05;2.30;;;;;;;;;;2616119;54;20030;-68
2021/08/17 13:15:47;;;;;;;2.97;2.05;;;;;;;;;;2616511;54;20022;-70
2021/08/17 13:18:13;;;;;;;3.63;2.20;;;;;;;;;;2615905;54;20030;-69
2021/08/17 13:20:39;;;;;;;3.85;2.50;;;;;;;;;;2616348;54;20023;-69
2021/08/17 13:23:04;;;;;;;4.18;2.08;;;;;;;;;;2616112;54;20122;-70
2021/08/17 13:25:30;;;;;;;3.35;2.63;;;;;;;;;;2616239;54;20867;-69
2021/08/17 13:27:55;;;;;;;3.65;2.00;;;;;;;;;;2616010;54;20054;-69
2021/08/17 13:30:21;;;;;;;4.38;2.88;;;;;;;;;;2615972;54;20014;-68
2021/08/17 13:32:46;;;;;;;3.95;2.65;;;;;;;;;;2616090;54;20142;-69
2021/08/17 13:35:12;;;;;;;4.25;2.47;;;;;;;;;;2615980;54;20361;-69
2021/08/17 13:37:37;;;;;;;2.72;1.65;;;;;;;;;;2616220;54;20019;-69
2021/08/17 13:40:04;;;;;;;5.35;2.88;;;;;;;;;;2616287;54;20030;-69
2021/08/17 13:42:30;;;;;;;6.45;3.50;;;;;;;;;;2615988;54;20691;-68
2021/08/17 13:44:55;;;;;;;4.03;2.53;;;;;;;;;;2616143;54;20045;-69
2021/08/17 13:47:21;;;;;;;3.88;2.90;;;;;;;;;;2616049;54;20018;-69
2021/08/17 13:49:47;;;;;;;4.50;2.67;;;;;;;;;;2616018;54;20050;-68
2021/08/17 13:52:13;;;;;;;2.92;1.88;;;;;;;;;;2616073;54;20022;-69
2021/08/17 13:54:39;;;;;;;3.25;2.15;;;;;;;;;;2615994;54;20026;-69
2021/08/17 13:57:05;;;;;;;3.38;2.25;;;;;;;;;;2616349;54;20098;-68
2021/08/17 13:59:31;;;;;;;4.72;2.80;;;;;;;;;;2615573;54;20030;-68
2021/08/17 14:01:56;;;;;;;3.78;2.80;;;;;;;;;;2615984;54;20518;-68
2021/08/17 14:04:21;;;;;;;4.68;3.00;;;;;;;;;;2616068;54;20019;-70
2021/08/17 14:06:47;;;;;;;3.67;2.60;;;;;;;;;;2615684;54;20023;-69
2021/08/17 14:09:13;;;;;;;3.60;2.53;;;;;;;;;;2616088;54;20014;-68
2021/08/17 14:11:40;;;;;;;3.80;2.45;;;;;;;;;;2615891;54;20138;-69
2021/08/17 14:14:07;;;;;;;4.28;2.28;;;;;;;;;;2616289;54;20026;-69
2021/08/17 14:16:34;;;;;;;3.30;2.38;;;;;;;;;;2616025;54;20022;-69
2021/08/17 14:18:59;;;;;;;4.35;3.30;;;;;;;;;;2615982;54;20559;-69
2021/08/17 14:21:25;;;;;;;3.15;2.17;;;;;;;;;;2616163;47;20026;-69
2021/08/17 14:23:52;;;;;;;6.13;3.10;;;;;;;;;;2615840;54;20018;-68
2021/08/17 14:26:24;;;;;;;3.05;1.98;;;;;;;;;;2616044;54;20023;-67
2021/08/17 14:28:51;;;;;;;4.03;2.53;;;;;;;;;;2616024;54;20026;-68
2021/08/17 14:31:17;;;;;;;3.60;1.92;;;;;;;;;;2616064;54;20010;-67
2021/08/17 14:33:42;;;;;;;3.88;2.55;;;;;;;;;;2615491;54;20026;-69
2021/08/17 14:36:08;;;;;;;5.28;2.58;;;;;;;;;;2615922;54;20814;-68
2021/08/17 14:38:34;;;;;;;3.50;2.22;;;;;;;;;;2616071;39;20385;-68
2021/08/17 14:40:59;;;;;;;2.83;2.03;;;;;;;;;;2616083;54;20011;-68
2021/08/17 14:43:25;;;;;;;4.45;2.50;;;;;;;;;;2616016;39;20396;-68
2021/08/17 14:45:50;;;;;;;3.63;2.03;;;;;;;;;;2616147;54;20485;-69
2021/08/17 14:48:16;;;;;;;3.25;2.42;;;;;;;;;;2615916;54;20069;-69